Weather at Dolansky Airport [CLOSED]

Public forecast

Using degrees Fahrenheit for public forecast. Weather courtesy of forecast.io.

Closest aviation weather report (METAR) to Dolansky Airport

Closest report is Niagara District Airport, 6.2 nm (11.6 km) WSW.

2024/07/13 21:00 (retrieved 39 minutes ago)

CYSN 132100Z 31004KT 220V360 15SM FEW060 29/13 A3011 RMK CU1 SLP199 DENSITY ALT 1800FT

Closest aviation forecast (TAF) to Dolansky Airport

Closest forecast is Niagara District Airport, 6.2 nm (11.6 km) WSW.

2024/07/13 20:00 (retrieved 2 hours ago)

TAF CYSN 131940Z 1320/1401 32005KT P6SM FEW050 RMK NXT FCST BY 141300Z